LFKB

Bastia-Poretta Airport

Bastia/Poretta, France
TAF LFKB 210800Z 2109/2209 02008KT CAVOK BECMG 2118/2120 VRB03KT PROB30 TEMPO 2202/2207 0600 FG VV/// TX25/2114Z TN13/2205Z
Issued Valid From Valid To
Apr-21 @ 08:00 UTC
(2 hours ago)
Apr-21 @ 09:00 UTC
(40 minutes ago)
Apr-22 @ 09:00 UTC
(in 23 hours)
Apr-21 @ 09:00 to Apr-21 @ 18:00
TAF LFKB 210800Z 2109/2209 02008KT CAVOK
Wind Visibility Clouds Conditions
20° at 8 knots 10,000+ meters
  • No significant clouds
Becoming Apr-21 @ 18:00 to Apr-22 @ 09:00
BECMG 2118/2120 VRB03KT
Wind Visibility Clouds Conditions
Variable at 3 knots 10,000+ meters
  • No significant clouds
Temporary  (Probability 30%) Apr-22 @ 02:00 to Apr-22 @ 07:00
PROB30 TEMPO 2202/2207 0600 FG VV/// TX25/2114Z TN13/2205Z
Visibility Conditions
595 meters
  • Fog
TAF LFKB 210800Z 2109/2209 02008KT CAVOK BECMG 2118/2120 VRB03KT PROB30 TEMPO 2202/2207 0600 FG VV/// TX25/2114Z TN13/2205Z
Issued Apr-21 @ 08:00 UTC
(2 hours ago)
Valid From Apr-21 @ 09:00 UTC
(40 minutes ago)
Valid To Apr-22 @ 09:00 UTC
(in 23 hours)
Apr-21 @ 09:00 - Apr-21 @ 18:00
Wind Visibility
20° at 8 knots 10,000+ meters
Clouds
  • No significant clouds
Conditions
Becoming Apr-21 @ 18:00 - Apr-22 @ 09:00
Wind Visibility
Variable at 3 knots 10,000+ meters
Clouds
  • No significant clouds
Conditions
Probability 30% Temporary Apr-22 @ 02:00 - Apr-22 @ 07:00
Conditions
  • Fog